Time;durP1;ratioP1;P1;durP2;ratioP2;P2;SDS_P1;SDS_P2;PMS_P1;PMS_P2;Temp;Humidity;BMP_temperature;BMP_pressure;BME280_temperature;BME280_humidity;BME280_pressure;Samples;Min_cycle;Max_cycle;Signal;HPM_P1;HPM_P2
2021/07/14 00:00:45;;;;;;;6.30;3.92;;;;;;;14.47;88.06;99969.28;21232576;27;20446;-71
2021/07/14 00:10:47;;;;;;;7.45;4.40;;;;;;;14.38;88.67;99965.25;21236467;27;20051;-71
2021/07/14 00:31:14;;;;;;;9.35;5.80;;;;;;;14.21;88.89;99912.34;21233152;27;20071;-71
2021/07/14 00:41:17;;;;;;;12.68;6.03;;;;;;;14.11;89.15;99910.06;21234906;27;20047;-71
2021/07/14 00:51:20;;;;;;;8.43;5.10;;;;;;;14.00;89.14;99896.47;21232987;27;20042;-71
2021/07/14 01:01:22;;;;;;;12.60;5.47;;;;;;;13.98;89.28;99905.31;21230758;27;20165;-71
2021/07/14 01:11:28;;;;;;;10.88;5.90;;;;;;;13.95;88.78;99895.78;21230383;27;20046;-71
2021/07/14 01:21:35;;;;;;;11.75;6.10;;;;;;;13.86;88.89;99878.56;21230902;27;20043;-71
2021/07/14 01:31:39;;;;;;;8.98;5.80;;;;;;;13.86;89.06;99882.97;21229628;27;20108;-71
2021/07/14 01:41:43;;;;;;;11.18;6.05;;;;;;;13.82;89.23;99897.16;21229861;27;20175;-71
2021/07/14 01:51:54;;;;;;;8.90;6.13;;;;;;;13.79;89.30;99908.63;21229125;27;20043;-70
2021/07/14 02:02:01;;;;;;;12.55;7.93;;;;;;;13.83;89.58;99918.13;21228241;27;20043;-71
2021/07/14 02:12:07;;;;;;;12.27;8.00;;;;;;;13.90;89.89;99925.81;21227528;28;20073;-71
2021/07/14 02:22:09;;;;;;;14.40;9.15;;;;;;;14.01;90.19;99945.56;21227875;28;20077;-71
2021/07/14 02:32:15;;;;;;;14.65;8.73;;;;;;;14.04;90.21;99932.28;21226442;28;20108;-71
2021/07/14 02:42:27;;;;;;;16.00;8.63;;;;;;;14.23;89.59;99939.47;21223185;28;20711;-71
2021/07/14 02:52:29;;;;;;;13.38;8.00;;;;;;;14.32;88.94;99941.75;21239193;27;20104;-71
2021/07/14 03:02:34;;;;;;;9.85;6.75;;;;;;;14.21;89.69;99936.06;21243554;27;20500;-71
2021/07/14 03:12:36;;;;;;;10.57;6.50;;;;;;;14.12;89.61;99917.03;21241734;27;20084;-71
2021/07/14 03:22:42;;;;;;;12.45;7.22;;;;;;;14.08;89.02;99893.53;21240882;27;20046;-71
2021/07/14 03:32:44;;;;;;;14.73;8.00;;;;;;;13.91;90.34;99906.47;21239221;27;20412;-71
2021/07/14 03:42:48;;;;;;;16.13;9.52;;;;;;;13.97;90.35;99922.88;21239266;27;20050;-71
2021/07/14 03:52:52;;;;;;;22.27;12.43;;;;;;;14.09;90.23;99946.13;21237918;27;20730;-71
2021/07/14 04:02:54;;;;;;;17.95;11.18;;;;;;;14.25;90.46;99948.19;21236220;27;20054;-71
2021/07/14 04:12:56;;;;;;;16.83;10.77;;;;;;;14.38;89.30;99954.72;21235037;27;20073;-70
2021/07/14 04:22:58;;;;;;;17.50;11.02;;;;;;;14.50;88.92;99938.44;21235718;27;20043;-70
2021/07/14 04:32:59;;;;;;;17.35;11.60;;;;;;;14.44;88.93;99937.81;21233491;27;20104;-70
2021/07/14 04:43:01;;;;;;;15.23;10.13;;;;;;;14.43;89.00;99941.38;21233871;27;20059;-70
2021/07/14 04:53:03;;;;;;;18.60;10.45;;;;;;;14.59;88.92;99938.09;21233091;27;20390;-70
2021/07/14 05:03:05;;;;;;;20.10;10.65;;;;;;;14.62;88.47;99937.13;21232238;27;20055;-71
2021/07/14 05:13:07;;;;;;;17.92;9.93;;;;;;;14.93;87.43;99942.00;21230582;27;20073;-71
2021/07/14 05:23:09;;;;;;;14.20;9.10;;;;;;;14.86;87.25;99915.03;21231488;27;20393;-71
2021/07/14 05:33:11;;;;;;;18.23;8.63;;;;;;;15.20;86.49;99908.38;21228627;27;20054;-71
2021/07/14 05:43:13;;;;;;;13.85;7.35;;;;;;;15.42;85.17;99903.00;21229360;27;20100;-71
2021/07/14 05:53:15;;;;;;;13.20;7.75;;;;;;;15.61;84.17;99908.31;21228357;27;20175;-71
2021/07/14 06:03:16;;;;;;;10.65;6.65;;;;;;;15.71;83.48;99898.25;21227334;27;20119;-71
2021/07/14 06:13:19;;;;;;;10.82;5.60;;;;;;;15.54;84.06;99907.75;21228722;28;20043;-71
2021/07/14 06:23:20;;;;;;;10.85;5.72;;;;;;;15.77;83.78;99914.69;21233728;27;20042;-71
2021/07/14 06:33:22;;;;;;;8.63;5.15;;;;;;;15.99;83.34;99922.47;21243392;27;20092;-70
2021/07/14 06:43:41;;;;;;;8.30;4.85;;;;;;;16.17;82.32;99928.72;21243670;27;20050;-70
2021/07/14 06:53:44;;;;;;;11.20;5.72;;;;;;;16.15;82.63;99936.72;21242149;27;20046;-70
2021/07/14 07:03:46;;;;;;;8.10;4.60;;;;;;;16.10;82.67;99937.84;21238610;27;20092;-70
2021/07/14 07:13:48;;;;;;;10.23;4.40;;;;;;;16.31;80.46;99946.56;21247324;27;20417;-70
2021/07/14 07:23:50;;;;;;;9.48;4.10;;;;;;;16.37;82.01;99948.91;21246594;27;20039;-70
2021/07/14 07:33:52;;;;;;;10.60;4.28;;;;;;;16.50;80.35;99931.56;21242804;27;20039;-70
2021/07/14 07:43:54;;;;;;;11.93;3.92;;;;;;;16.42;80.72;99931.91;21244515;27;20089;-69
2021/07/14 07:53:57;;;;;;;6.63;3.88;;;;;;;16.76;79.74;99922.41;21244283;27;20485;-71
2021/07/14 08:03:59;;;;;;;7.50;3.15;;;;;;;16.91;79.65;99928.72;21238285;27;20062;-70
2021/07/14 08:14:02;;;;;;;7.07;3.55;;;;;;;17.00;78.55;99941.47;21241809;27;20072;-68
2021/07/14 08:24:04;;;;;;;8.85;3.63;;;;;;;17.00;79.12;99960.00;21242293;27;20134;-71
2021/07/14 08:34:06;;;;;;;8.30;3.65;;;;;;;16.83;78.56;99978.50;21239189;27;20104;-71
2021/07/14 08:44:08;;;;;;;8.43;3.97;;;;;;;16.86;78.80;99978.31;21239698;27;20084;-71
2021/07/14 08:54:11;;;;;;;9.05;3.78;;;;;;;16.85;79.55;99974.84;21239370;27;20100;-71
2021/07/14 09:04:13;;;;;;;6.18;3.80;;;;;;;16.85;79.84;99985.41;21237960;27;20043;-71
2021/07/14 09:14:25;;;;;;;10.80;3.80;;;;;;;16.95;79.89;99980.53;21238120;27;20062;-68
2021/07/14 09:24:34;;;;;;;13.30;4.40;;;;;;;17.22;79.67;99977.47;21237132;27;20108;-68
2021/07/14 09:34:36;;;;;;;8.30;4.57;;;;;;;17.05;82.01;99984.44;21238539;27;20090;-69
2021/07/14 09:44:47;;;;;;;9.25;3.97;;;;;;;17.00;81.40;99993.53;21233692;27;20069;-69
2021/07/14 09:54:49;;;;;;;7.80;3.85;;;;;;;17.07;80.87;100001.09;21233098;27;20096;-69
2021/07/14 10:04:50;;;;;;;9.55;4.13;;;;;;;17.11;82.07;100029.13;21233609;27;20042;-68
2021/07/14 10:14:52;;;;;;;8.10;4.38;;;;;;;17.23;81.63;100037.38;21232072;28;20544;-69
2021/07/14 10:24:54;;;;;;;8.25;4.35;;;;;;;17.25;82.38;100046.97;21229389;28;20455;-69
2021/07/14 10:34:56;;;;;;;7.82;4.20;;;;;;;17.15;82.11;100049.22;21231040;28;20452;-69
2021/07/14 10:44:59;;;;;;;8.77;4.05;;;;;;;17.27;80.79;100037.16;21232328;28;20051;-69
2021/07/14 10:55:02;;;;;;;7.88;4.10;;;;;;;17.59;80.62;100034.72;21230137;28;20073;-69
2021/07/14 11:05:04;;;;;;;6.43;3.78;;;;;;;17.70;81.03;100016.47;21230795;28;20348;-69
2021/07/14 11:15:08;;;;;;;9.43;4.28;;;;;;;18.01;79.74;99999.88;21244095;27;20104;-72
2021/07/14 11:25:21;;;;;;;8.50;3.38;;;;;;;18.25;78.38;99991.56;21250037;27;20089;-71
2021/07/14 11:35:36;;;;;;;7.88;3.25;;;;;;;18.34;77.43;99997.22;21248844;27;20050;-72
2021/07/14 11:45:39;;;;;;;5.63;3.10;;;;;;;18.73;77.40;99992.50;21245345;27;20077;-72
2021/07/14 11:55:41;;;;;;;5.55;2.90;;;;;;;19.21;76.92;100004.75;21125998;28;20452;-73
2021/07/14 12:05:43;;;;;;;7.20;2.92;;;;;;;18.77;76.96;100002.84;21077642;28;20606;-72
2021/07/14 12:15:46;;;;;;;7.28;2.50;;;;;;;18.68;75.77;99980.38;21127987;28;20093;-72
2021/07/14 12:25:48;;;;;;;4.35;2.25;;;;;;;19.10;73.39;99997.44;21159467;28;20044;-72
2021/07/14 12:35:50;;;;;;;3.38;1.90;;;;;;;19.25;73.86;99984.22;21160181;28;20862;-72
2021/07/14 12:45:54;;;;;;;4.53;1.83;;;;;;;19.11;70.14;99977.91;21158634;28;20479;-71
2021/07/14 12:55:57;;;;;;;3.77;1.90;;;;;;;19.23;72.05;99987.81;21196748;27;20051;-70
2021/07/14 13:06:00;;;;;;;3.43;1.77;;;;;;;19.43;71.76;99986.66;21240896;27;20496;-70
2021/07/14 13:16:04;;;;;;;3.78;1.70;;;;;;;19.68;69.80;99972.78;21240287;27;20047;-70
2021/07/14 13:26:17;;;;;;;3.87;1.57;;;;;;;19.89;68.20;99959.19;21240697;27;20493;-70
2021/07/14 13:36:19;;;;;;;2.88;1.50;;;;;;;20.37;64.85;99943.78;21237685;27;20385;-70
2021/07/14 13:46:24;;;;;;;1.88;1.10;;;;;;;20.55;64.83;99934.63;21238932;27;20043;-70
2021/07/14 13:56:29;;;;;;;3.70;1.27;;;;;;;20.50;63.95;99934.06;21237505;27;20116;-70
2021/07/14 14:06:31;;;;;;;2.17;0.90;;;;;;;20.12;64.73;99953.28;21236603;27;20070;-70
2021/07/14 14:16:32;;;;;;;1.83;1.08;;;;;;;19.77;65.80;99989.13;21238030;28;20689;-70
2021/07/14 14:26:34;;;;;;;2.38;1.10;;;;;;;19.41;67.79;99999.16;21237872;27;20058;-70
2021/07/14 14:36:36;;;;;;;2.20;0.95;;;;;;;19.35;68.18;99985.38;21236522;27;20073;-71
2021/07/14 14:46:40;;;;;;;2.03;1.13;;;;;;;19.55;67.95;99979.78;21246808;27;20389;-71
2021/07/14 14:56:42;;;;;;;2.47;1.20;;;;;;;18.88;74.97;99967.78;21252521;27;20051;-72
2021/07/14 15:06:44;;;;;;;2.60;1.27;;;;;;;18.88;77.56;99981.91;21251155;27;20282;-72
2021/07/14 15:16:45;;;;;;;3.25;1.30;;;;;;;18.58;79.83;99979.09;21245264;27;20035;-72
2021/07/14 15:37:12;;;;;;;2.67;1.20;;;;;;;18.67;80.26;99962.69;21247463;27;20358;-71
2021/07/14 15:47:14;;;;;;;2.60;1.33;;;;;;;18.76;80.31;99965.81;21245738;27;20096;-70
2021/07/14 15:57:16;;;;;;;2.53;1.33;;;;;;;18.64;79.47;99970.84;21227460;27;20107;-70
2021/07/14 16:07:22;;;;;;;2.95;1.17;;;;;;;18.59;79.09;99964.06;21245948;27;20043;-70
2021/07/14 16:17:23;;;;;;;1.42;0.93;;;;;;;18.57;77.59;99958.84;21245559;27;20441;-70
2021/07/14 16:27:25;;;;;;;3.15;0.90;;;;;;;18.35;78.24;99950.34;21244428;27;20043;-70
2021/07/14 16:37:27;;;;;;;1.33;0.82;;;;;;;18.23;79.28;99969.59;21241833;27;20081;-70
2021/07/14 16:47:29;;;;;;;2.55;0.93;;;;;;;18.20;79.45;99976.78;21243714;27;20477;-70
2021/07/14 16:57:31;;;;;;;4.78;1.90;;;;;;;18.10;80.70;99987.94;21241885;27;20507;-71
2021/07/14 17:07:37;;;;;;;2.42;1.20;;;;;;;18.17;80.87;99987.53;21238378;27;20035;-70
2021/07/14 17:17:39;;;;;;;3.97;1.55;;;;;;;18.12;80.68;99975.47;21237632;27;20043;-70
2021/07/14 17:27:41;;;;;;;2.40;1.02;;;;;;;18.07;81.29;99958.97;21238769;27;20043;-71
2021/07/14 17:37:43;;;;;;;5.82;1.02;;;;;;;17.98;80.00;99957.66;21233949;27;20112;-70
2021/07/14 17:47:44;;;;;;;1.65;0.80;;;;;;;17.98;81.17;99960.31;21237667;27;20116;-70
2021/07/14 17:57:47;;;;;;;1.88;0.80;;;;;;;17.82;82.30;99956.75;21236022;27;20045;-71
2021/07/14 18:07:49;;;;;;;3.28;1.00;;;;;;;17.78;82.81;99939.34;21234803;27;20483;-69
2021/07/14 18:17:51;;;;;;;1.85;1.00;;;;;;;17.62;82.07;99926.84;21240640;27;20047;-70
2021/07/14 18:27:53;;;;;;;3.35;1.08;;;;;;;17.64;81.16;99916.19;21252886;27;20050;-70
2021/07/14 18:37:59;;;;;;;2.47;1.13;;;;;;;17.57;81.79;99909.50;21253196;27;20077;-71
2021/07/14 18:48:02;;;;;;;2.22;1.17;;;;;;;17.45;81.36;99908.38;21245104;27;20374;-70
2021/07/14 18:58:04;;;;;;;3.15;0.80;;;;;;;17.25;83.38;99904.09;21246261;27;20120;-70
2021/07/14 19:08:07;;;;;;;1.60;0.77;;;;;;;17.08;85.39;99901.44;21243022;27;20039;-70
2021/07/14 19:18:09;;;;;;;3.20;0.90;;;;;;;16.91;85.58;99895.22;21242441;27;20081;-71
2021/07/14 19:28:11;;;;;;;3.08;0.90;;;;;;;16.73;86.15;99895.28;21240487;27;20070;-70
2021/07/14 19:38:15;;;;;;;2.28;0.50;;;;;;;16.71;85.43;99894.44;21241849;27;20485;-70
2021/07/14 19:48:20;;;;;;;0.83;0.47;;;;;;;16.68;85.00;99904.25;21238621;27;20058;-70
2021/07/14 19:58:22;;;;;;;3.92;0.98;;;;;;;16.65;85.90;99908.81;21244890;27;20039;-70
2021/07/14 20:08:24;;;;;;;2.65;0.80;;;;;;;16.59;86.69;99899.41;21245015;27;20051;-70
2021/07/14 20:18:26;;;;;;;5.15;0.82;;;;;;;16.61;86.33;99884.31;21244595;27;20391;-70
2021/07/14 20:28:28;;;;;;;1.30;0.60;;;;;;;16.58;86.70;99887.13;21243461;27;20047;-69
2021/07/14 20:38:30;;;;;;;2.85;0.70;;;;;;;16.58;87.06;99900.34;21241663;27;20055;-69
2021/07/14 20:48:32;;;;;;;1.45;0.60;;;;;;;16.57;86.61;99906.53;21240976;27;20043;-69
2021/07/14 20:58:34;;;;;;;5.63;1.30;;;;;;;16.62;87.32;99899.28;21241681;27;20092;-70
2021/07/14 21:08:35;;;;;;;3.70;0.77;;;;;;;16.62;87.73;99893.97;21240285;27;20062;-70
2021/07/14 21:18:38;;;;;;;1.10;0.60;;;;;;;16.68;87.99;99893.69;21240514;27;20089;-70
2021/07/14 21:28:40;;;;;;;2.20;0.40;;;;;;;16.47;88.74;99892.06;21239577;27;20040;-69
2021/07/14 21:38:42;;;;;;;2.00;0.40;;;;;;;16.40;89.42;99895.94;21237837;27;20047;-68
2021/07/14 21:48:44;;;;;;;1.58;0.30;;;;;;;16.41;88.92;99877.34;21237847;27;20058;-68
2021/07/14 21:58:46;;;;;;;0.38;0.20;;;;;;;16.28;89.45;99878.88;21237176;27;20077;-69
2021/07/14 22:08:48;;;;;;;1.02;0.30;;;;;;;16.33;89.13;99892.72;21197252;27;20201;-69
2021/07/14 22:18:50;;;;;;;1.75;0.30;;;;;;;16.25;89.66;99894.03;21236283;28;20412;-70
2021/07/14 22:28:52;;;;;;;1.45;0.30;;;;;;;16.20;89.17;99896.03;21235795;28;20092;-72
2021/07/14 22:38:54;;;;;;;1.35;0.17;;;;;;;16.23;88.54;99885.31;21234469;28;20509;-71
2021/07/14 22:48:56;;;;;;;1.42;0.40;;;;;;;16.10;89.55;99893.81;21233446;28;20051;-71
2021/07/14 22:58:58;;;;;;;0.70;0.30;;;;;;;16.09;88.36;99900.00;21233052;28;20043;-70
2021/07/14 23:09:00;;;;;;;1.50;0.20;;;;;;;16.13;88.20;99900.72;21244580;27;20043;-71
2021/07/14 23:19:02;;;;;;;0.50;0.20;;;;;;;16.03;89.62;99915.28;21249926;27;20043;-70
2021/07/14 23:29:05;;;;;;;1.10;0.20;;;;;;;16.03;88.87;99916.13;21248168;27;20051;-70
2021/07/14 23:39:07;;;;;;;2.00;0.20;;;;;;;16.02;90.22;99919.72;21246346;27;20050;-72
2021/07/14 23:49:10;;;;;;;1.50;0.20;;;;;;;15.97;89.39;99915.56;21247001;27;20410;-71
2021/07/14 23:59:11;;;;;;;0.35;0.20;;;;;;;15.92;89.79;99907.88;21245552;27;20059;-71
